Terminal Aerodrome Forecast
Issued by NWS El Paso, TX

Home | Current Version | Previous Version | Text Only | Print | Product List | Glossary On
Versions: 1 2 3 4 5 6 7 8 9 10 11 12 13
078
FTUS44 KEPZ 030009 AAA
TAFELP
TAF AMD
KELP 030009Z 0300/0324 09011KT P6SM VCSH SCT070 BKN090 BKN200
     FM030200 03010G20KT P6SM VCSH FEW050 BKN070 BKN120
      TEMPO 0302/0304 -SHRA SCT050 BKN090 OVC120
     FM030400 03012G23KT P6SM -SHRA SCT030 BKN050 OVC090
     FM030700 02015G25KT 5SM -RA FEW020 BKN030 OVC050
     FM031400 05015G25KT 3SM -SHRA FEW005 BKN020 OVC040=

USA.gov is the U.S. government's official web portal to all federal, state and local government web resources and services.